createdAt,value
2022-12-26T00:00:57.229Z,4.83
2022-12-26T00:03:24.914Z,4.69
2022-12-26T00:05:54.007Z,4.62
2022-12-26T00:08:21.415Z,4.83
2022-12-26T00:10:48.973Z,4.91
2022-12-26T00:13:38.614Z,4.85
2022-12-26T00:16:10.865Z,4.80
2022-12-26T00:18:38.861Z,4.74
2022-12-26T00:21:06.950Z,4.91
2022-12-26T00:23:34.738Z,4.92
2022-12-26T00:26:06.017Z,5.09
2022-12-26T00:28:33.490Z,5.17
2022-12-26T00:31:04.555Z,5.13
2022-12-26T00:33:33.923Z,5.22
2022-12-26T00:36:02.723Z,5.07
2022-12-26T00:38:30.423Z,5.12
2022-12-26T00:40:57.888Z,5.17
2022-12-26T00:43:25.490Z,4.87
2022-12-26T00:45:54.048Z,4.87
2022-12-26T00:48:21.986Z,4.86
2022-12-26T00:50:49.711Z,4.86
2022-12-26T00:53:17.048Z,4.76
2022-12-26T00:55:44.451Z,4.73
2022-12-26T00:58:11.893Z,4.66
2022-12-26T01:00:39.263Z,4.75
2022-12-26T01:03:07.309Z,4.91
2022-12-26T01:05:35.172Z,4.90
2022-12-26T01:08:19.722Z,4.73
2022-12-26T01:10:51.388Z,4.83
2022-12-26T01:13:19.177Z,4.97
2022-12-26T01:15:50.502Z,5.05
2022-12-26T01:18:18.583Z,4.80
2022-12-26T01:20:46.090Z,4.70
2022-12-26T01:23:13.377Z,4.68
2022-12-26T01:26:16.910Z,4.71
2022-12-26T01:28:29.905Z,4.73
2022-12-26T01:31:01.393Z,4.64
2022-12-26T01:33:29.019Z,4.88
2022-12-26T01:35:56.340Z,4.98
2022-12-26T01:38:25.240Z,4.75
2022-12-26T01:41:13.171Z,4.75
2022-12-26T01:43:50.504Z,4.79
2022-12-26T01:46:19.215Z,4.83
2022-12-26T01:48:47.048Z,4.85
2022-12-26T01:51:14.524Z,5.12
2022-12-26T01:53:47.323Z,5.18
2022-12-26T01:56:16.320Z,4.95
2022-12-26T01:58:45.235Z,4.98
2022-12-26T02:01:12.724Z,4.75
2022-12-26T02:03:58.900Z,4.66
2022-12-26T02:06:26.508Z,4.72
2022-12-26T02:08:53.830Z,4.65
2022-12-26T02:11:25.192Z,4.48
2022-12-26T02:13:53.591Z,4.44
2022-12-26T02:16:21.263Z,4.53
2022-12-26T02:18:48.802Z,4.47
2022-12-26T02:21:19.363Z,4.66
2022-12-26T02:24:05.612Z,4.60
2022-12-26T02:26:36.073Z,4.72
2022-12-26T02:29:03.819Z,4.69
2022-12-26T02:31:39.453Z,4.64
2022-12-26T02:34:25.640Z,4.73
2022-12-26T02:36:56.178Z,4.55
2022-12-26T02:39:44.443Z,4.52
2022-12-26T02:42:19.756Z,4.54
2022-12-26T02:45:12.515Z,4.60
2022-12-26T02:47:52.271Z,4.45
2022-12-26T02:50:38.312Z,4.51
2022-12-26T02:53:29.205Z,4.37
2022-12-26T02:56:16.356Z,4.45
2022-12-26T02:59:55.672Z,4.55
2022-12-26T03:02:34.868Z,4.26
2022-12-26T03:05:21.109Z,4.46
2022-12-26T03:08:07.218Z,4.66
2022-12-26T03:10:53.805Z,4.50
2022-12-26T03:13:23.810Z,4.57
2022-12-26T03:16:14.690Z,4.49
2022-12-26T03:18:57.848Z,4.42
2022-12-26T03:21:27.892Z,4.42
2022-12-26T03:23:55.886Z,4.49
2022-12-26T03:26:40.277Z,4.54
2022-12-26T03:29:27.048Z,4.58
2022-12-26T03:31:54.641Z,4.46
2022-12-26T03:34:21.938Z,4.51
2022-12-26T03:37:04.757Z,4.67
2022-12-26T03:39:56.634Z,4.69
2022-12-26T03:42:52.382Z,4.67
2022-12-26T03:45:54.477Z,4.74
2022-12-26T03:49:06.776Z,4.77
2022-12-26T03:52:22.216Z,4.86
2022-12-26T03:55:27.006Z,4.88
2022-12-26T03:58:13.980Z,4.83
2022-12-26T04:01:00.226Z,4.75
2022-12-26T04:03:46.465Z,4.93
2022-12-26T04:06:33.962Z,4.84
2022-12-26T04:09:38.972Z,4.65
2022-12-26T04:12:25.087Z,4.66
2022-12-26T04:15:12.770Z,5.00
2022-12-26T04:18:13.053Z,4.75
2022-12-26T04:20:46.649Z,4.63
2022-12-26T04:23:35.316Z,4.45
2022-12-26T04:26:23.518Z,4.48
2022-12-26T04:29:09.723Z,4.46
2022-12-26T04:32:06.475Z,4.48
2022-12-26T04:34:58.714Z,4.48
2022-12-26T04:37:45.278Z,4.56
2022-12-26T04:40:34.024Z,4.77
2022-12-26T04:43:49.191Z,4.75
2022-12-26T04:46:07.824Z,4.81
2022-12-26T04:48:53.885Z,4.75
2022-12-26T04:51:22.804Z,4.67
2022-12-26T04:53:50.312Z,4.49
2022-12-26T04:56:18.888Z,4.49
2022-12-26T04:58:46.286Z,4.66
2022-12-26T05:01:32.416Z,4.90
2022-12-26T05:04:18.860Z,4.87
2022-12-26T05:07:05.265Z,4.72
2022-12-26T05:09:36.897Z,4.54
2022-12-26T05:12:05.345Z,4.65
2022-12-26T05:14:32.738Z,4.70
2022-12-26T05:17:19.030Z,4.69
2022-12-26T05:20:05.242Z,4.74
2022-12-26T05:22:52.198Z,4.64
2022-12-26T05:25:39.432Z,4.72
2022-12-26T05:28:27.729Z,4.72
2022-12-26T05:30:55.394Z,4.81
2022-12-26T05:33:42.300Z,4.98
2022-12-26T05:36:10.112Z,5.05
2022-12-26T05:38:37.954Z,5.14
2022-12-26T05:41:05.617Z,5.01
2022-12-26T05:43:33.085Z,5.07
2022-12-26T05:46:00.412Z,5.09
2022-12-26T05:48:27.931Z,5.05
2022-12-26T05:51:00.530Z,5.09
2022-12-26T05:53:30.168Z,5.08
2022-12-26T05:56:07.486Z,5.18
2022-12-26T05:58:34.976Z,5.11
2022-12-26T06:01:12.468Z,4.92
2022-12-26T06:03:40.132Z,4.96
2022-12-26T06:06:07.590Z,5.14
2022-12-26T06:08:36.451Z,5.05
2022-12-26T06:11:05.213Z,5.00
2022-12-26T06:13:32.693Z,4.96
2022-12-26T06:16:04.016Z,5.06
2022-12-26T06:18:33.133Z,4.88
2022-12-26T06:21:03.527Z,4.98
2022-12-26T06:23:33.953Z,4.94
2022-12-26T06:26:02.025Z,5.03
2022-12-26T06:28:29.683Z,5.03
2022-12-26T06:31:04.626Z,5.14
2022-12-26T06:33:33.217Z,5.11
2022-12-26T06:36:07.491Z,5.12
2022-12-26T06:38:35.359Z,5.20
2022-12-26T06:41:04.967Z,5.25
2022-12-26T06:43:34.042Z,5.31
2022-12-26T06:46:03.706Z,5.39
2022-12-26T06:48:33.011Z,5.38
2022-12-26T06:51:07.619Z,5.40
2022-12-26T06:53:40.927Z,5.36
2022-12-26T06:56:08.867Z,5.41
2022-12-26T06:58:36.377Z,5.41
2022-12-26T07:01:07.717Z,5.40
2022-12-26T07:03:37.096Z,5.35
2022-12-26T07:06:10.390Z,5.19
2022-12-26T07:08:38.371Z,5.05
2022-12-26T10:56:18.242Z,4.23
2022-12-26T10:58:46.034Z,4.17
2022-12-26T11:01:28.909Z,4.24
2022-12-26T11:03:59.740Z,4.33
2022-12-26T11:06:28.348Z,4.27
2022-12-26T11:08:56.233Z,4.05
2022-12-26T11:11:24.860Z,4.16
2022-12-26T11:14:01.285Z,4.26
2022-12-26T11:16:30.794Z,4.30
2022-12-26T11:18:58.531Z,4.15
2022-12-26T11:21:29.079Z,4.14
2022-12-26T11:24:17.108Z,4.37
2022-12-26T11:26:44.716Z,4.33
2022-12-26T11:29:16.315Z,4.36
2022-12-26T11:31:49.857Z,4.32
2022-12-26T11:34:18.030Z,3.95
2022-12-26T11:36:46.396Z,4.29
2022-12-26T11:39:22.788Z,4.17
2022-12-26T11:41:50.298Z,4.00
2022-12-26T11:44:28.844Z,4.04
2022-12-26T11:47:00.679Z,4.24
2022-12-26T11:49:33.645Z,4.24
2022-12-26T11:52:02.219Z,3.90
2022-12-26T11:54:31.333Z,3.74
2022-12-26T11:57:03.700Z,3.65
2022-12-26T11:59:31.502Z,3.95
2022-12-26T12:02:19.105Z,4.01
2022-12-26T12:04:47.439Z,3.79
2022-12-26T12:07:23.993Z,3.96
2022-12-26T12:09:57.815Z,3.88
2022-12-26T12:12:25.192Z,4.10
2022-12-26T12:15:11.408Z,4.02
2022-12-26T12:17:44.455Z,3.89
2022-12-26T12:20:30.432Z,4.29
2022-12-26T12:23:04.743Z,4.30
2022-12-26T12:25:38.217Z,4.11
2022-12-26T12:28:21.381Z,4.14
2022-12-26T12:30:55.276Z,4.05
2022-12-26T12:33:25.778Z,4.04
2022-12-26T12:36:11.903Z,3.75
2022-12-26T12:38:56.352Z,4.10
2022-12-26T12:41:24.399Z,4.10
2022-12-26T12:44:02.368Z,4.00
2022-12-26T12:46:46.857Z,4.22
2022-12-26T12:49:33.235Z,4.08
2022-12-26T12:52:11.165Z,3.89
2022-12-26T12:54:53.357Z,3.76
2022-12-26T12:57:29.590Z,4.13
2022-12-26T13:00:00.195Z,3.95
2022-12-26T13:02:32.771Z,4.01
2022-12-26T13:05:39.321Z,3.93
2022-12-26T13:08:30.028Z,3.93
2022-12-26T13:11:05.969Z,4.03
2022-12-26T13:13:51.656Z,3.91
2022-12-26T13:16:25.422Z,4.17
2022-12-26T13:18:54.200Z,4.03
2022-12-26T13:21:21.763Z,3.99
2022-12-26T13:24:12.062Z,4.01
2022-12-26T13:26:43.404Z,4.03
2022-12-26T13:29:11.496Z,3.86
2022-12-26T13:31:39.215Z,4.03
2022-12-26T13:34:11.186Z,4.12
2022-12-26T13:36:43.474Z,4.08
2022-12-26T13:39:14.461Z,3.94
2022-12-26T13:42:16.365Z,3.90
2022-12-26T13:44:46.691Z,3.98
2022-12-26T13:47:31.339Z,3.99
2022-12-26T13:49:59.075Z,4.10
2022-12-26T13:52:33.024Z,4.26
2022-12-26T13:55:07.099Z,4.29
2022-12-26T13:57:34.735Z,4.22
2022-12-26T14:00:18.521Z,3.95
2022-12-26T14:03:16.847Z,3.97
2022-12-26T14:05:45.415Z,4.07
2022-12-26T14:08:33.686Z,4.18
2022-12-26T14:11:20.502Z,3.88
2022-12-26T14:13:52.000Z,3.53
2022-12-26T14:16:25.658Z,3.89
2022-12-26T14:19:18.693Z,3.90
2022-12-26T14:22:08.534Z,3.87
2022-12-26T14:24:38.327Z,3.87
2022-12-26T14:27:22.753Z,4.05
2022-12-26T14:29:56.196Z,3.86
2022-12-26T14:32:29.995Z,3.79
2022-12-26T14:35:16.335Z,4.07
2022-12-26T14:37:46.923Z,4.00
2022-12-26T14:40:14.702Z,4.01
2022-12-26T14:43:12.734Z,4.06
2022-12-26T14:45:42.095Z,3.61
2022-12-26T14:48:16.074Z,3.85
2022-12-26T14:50:53.172Z,4.08
2022-12-26T14:53:20.806Z,4.03
2022-12-26T14:55:58.395Z,4.10
2022-12-26T14:58:29.180Z,4.05
2022-12-26T15:01:20.974Z,4.26
2022-12-26T15:03:49.182Z,3.90
2022-12-26T15:06:19.967Z,3.77
2022-12-26T15:09:06.685Z,3.87
2022-12-26T15:11:43.880Z,3.91
2022-12-26T15:14:33.633Z,3.76
2022-12-26T15:17:20.365Z,3.81
2022-12-26T15:20:06.930Z,4.02
2022-12-26T15:22:34.521Z,4.00
2022-12-26T15:25:19.707Z,3.88
2022-12-26T15:27:57.145Z,4.12
2022-12-26T15:30:36.592Z,3.75
2022-12-26T15:33:06.598Z,3.97
2022-12-26T15:35:41.643Z,3.83
2022-12-26T15:38:26.875Z,3.72
2022-12-26T15:41:11.511Z,3.65
2022-12-26T15:43:49.697Z,3.88
2022-12-26T15:46:21.591Z,3.62
2022-12-26T15:48:49.221Z,3.58
2022-12-26T15:51:16.742Z,3.42
2022-12-26T15:53:57.534Z,3.34
2022-12-26T15:56:45.758Z,3.70
2022-12-26T15:59:32.187Z,3.48
2022-12-26T16:02:00.584Z,3.30
2022-12-26T16:04:39.575Z,3.48
2022-12-26T16:07:27.061Z,3.58
2022-12-26T16:09:55.714Z,3.73
2022-12-26T16:12:26.219Z,3.78
2022-12-26T16:15:14.274Z,3.79
2022-12-26T16:17:42.154Z,3.79
2022-12-26T16:20:43.780Z,3.82
2022-12-26T16:23:12.702Z,3.82
2022-12-26T16:25:40.911Z,3.83
2022-12-26T20:55:38.785Z,3.43
2022-12-26T20:58:07.236Z,3.48
2022-12-26T21:00:38.143Z,3.37
2022-12-26T21:03:07.131Z,3.38
2022-12-26T21:05:35.032Z,3.40
2022-12-26T21:08:02.831Z,3.40
2022-12-26T21:10:31.923Z,3.31
2022-12-26T21:12:59.282Z,3.33
2022-12-26T21:15:27.286Z,3.44
2022-12-26T21:17:55.078Z,3.25
2022-12-26T21:20:23.265Z,2.91
2022-12-26T21:22:53.580Z,3.26
2022-12-26T21:25:21.343Z,3.00
2022-12-26T21:27:49.827Z,3.30
2022-12-26T21:30:18.975Z,3.37
2022-12-26T21:32:46.382Z,3.25
2022-12-26T21:35:14.939Z,3.07
2022-12-26T21:37:48.648Z,3.21
2022-12-26T21:40:16.223Z,3.13
2022-12-26T21:42:43.574Z,3.02
2022-12-26T21:45:11.557Z,3.42
2022-12-26T21:47:39.717Z,3.41
2022-12-26T21:50:09.989Z,3.03
2022-12-26T21:52:38.630Z,2.94
2022-12-26T21:55:25.199Z,3.48
2022-12-26T21:57:53.288Z,3.53
2022-12-26T22:00:20.827Z,3.38
2022-12-26T22:03:07.101Z,3.42
2022-12-26T22:05:35.818Z,3.47
2022-12-26T22:08:03.980Z,3.20
2022-12-26T22:10:50.815Z,3.28
2022-12-26T22:13:18.405Z,3.11
2022-12-26T22:16:04.692Z,3.54
2022-12-26T22:18:39.995Z,3.58
2022-12-26T22:21:09.274Z,3.37
2022-12-26T22:23:37.510Z,3.33
2022-12-26T22:26:05.320Z,3.15
2022-12-26T22:28:35.320Z,3.15
2022-12-26T22:31:02.974Z,3.17
2022-12-26T22:33:30.463Z,3.26
2022-12-26T22:36:05.196Z,3.55
2022-12-26T22:38:33.267Z,3.28
2022-12-26T22:41:00.696Z,3.35
2022-12-26T22:43:28.073Z,3.11
2022-12-26T22:45:55.578Z,3.37
2022-12-26T22:48:23.245Z,3.32
2022-12-26T22:50:51.900Z,3.38
2022-12-26T22:53:19.437Z,3.21
2022-12-26T22:55:47.785Z,3.47
2022-12-26T22:58:15.532Z,3.48
2022-12-26T23:00:43.281Z,3.40
2022-12-26T23:03:10.769Z,3.39
